createdAt,value
2023-02-13T00:01:35.759Z,58.38
2023-02-13T00:04:02.025Z,56.55
2023-02-13T00:06:28.239Z,54.58
2023-02-13T00:08:54.552Z,55.30
2023-02-13T00:11:20.761Z,62.15
2023-02-13T00:13:47.025Z,54.95
2023-02-13T00:16:13.361Z,58.53
2023-02-13T00:18:39.788Z,51.53
2023-02-13T00:21:07.155Z,56.92
2023-02-13T00:23:34.108Z,59.22
2023-02-13T00:26:00.710Z,51.67
2023-02-13T00:28:27.314Z,58.47
2023-02-13T00:30:53.659Z,53.20
2023-02-13T00:33:19.983Z,51.08
2023-02-13T00:35:46.271Z,54.05
2023-02-13T00:38:12.528Z,60.00
2023-02-13T00:40:38.760Z,67.07
2023-02-13T00:43:04.963Z,67.07
2023-02-13T00:45:31.184Z,56.47
2023-02-13T00:47:57.382Z,61.40
2023-02-13T00:50:23.663Z,201.73
2023-02-13T00:52:49.932Z,82.95
2023-02-13T00:55:16.325Z,201.70
2023-02-13T00:57:42.598Z,84.60
2023-02-13T01:00:09.080Z,80.30
2023-02-13T01:02:36.112Z,91.35
2023-02-13T01:05:02.532Z,73.78
2023-02-13T01:07:28.862Z,56.58
2023-02-13T01:09:55.141Z,65.05
2023-02-13T01:12:21.397Z,50.72
2023-02-13T01:14:47.741Z,54.88
2023-02-13T01:17:13.950Z,45.72
2023-02-13T01:19:40.691Z,46.35
2023-02-13T01:22:07.749Z,47.17
2023-02-13T01:24:34.084Z,42.67
2023-02-13T01:27:02.324Z,34.97
2023-02-13T01:29:29.019Z,42.40
2023-02-13T01:31:55.357Z,40.50
2023-02-13T01:34:21.686Z,33.28
2023-02-13T01:36:47.917Z,28.77
2023-02-13T01:39:14.180Z,25.55
2023-02-13T01:41:40.505Z,31.83
2023-02-13T01:44:25.567Z,34.25
2023-02-13T01:46:51.872Z,28.73
2023-02-13T01:49:20.094Z,29.75
2023-02-13T01:51:47.234Z,29.50
2023-02-13T01:54:15.214Z,28.58
2023-02-13T01:56:44.471Z,27.92
2023-02-13T01:59:12.702Z,29.00
2023-02-13T02:01:39.370Z,34.05
2023-02-13T02:04:08.775Z,55.95
2023-02-13T02:06:37.031Z,49.45
2023-02-13T02:09:06.065Z,59.25
2023-02-13T02:11:59.013Z,65.57
2023-02-13T02:14:26.039Z,48.78
2023-02-13T02:16:53.767Z,39.25
2023-02-13T02:19:39.951Z,34.22
2023-02-13T02:22:09.276Z,34.80
2023-02-13T02:24:47.641Z,35.80
2023-02-13T02:27:22.019Z,34.33
2023-02-13T02:29:57.310Z,31.65
2023-02-13T02:32:35.889Z,35.90
2023-02-13T02:35:02.128Z,34.47
2023-02-13T02:37:35.422Z,32.15
2023-02-13T02:40:07.732Z,43.78
2023-02-13T02:42:46.206Z,36.30
2023-02-13T02:45:28.941Z,35.33
2023-02-13T02:48:25.315Z,36.88
2023-02-13T02:50:53.523Z,38.88
2023-02-13T02:53:41.867Z,41.08
2023-02-13T02:56:23.471Z,40.88
2023-02-13T02:59:14.473Z,44.05
2023-02-13T03:02:00.186Z,48.10
2023-02-13T03:05:05.106Z,46.00
2023-02-13T03:07:31.793Z,47.20
2023-02-13T03:10:18.647Z,54.97
2023-02-13T03:13:09.621Z,48.05
2023-02-13T03:15:56.892Z,49.53
2023-02-13T03:18:46.072Z,53.13
2023-02-13T03:21:43.935Z,53.35
2023-02-13T03:24:17.356Z,42.03
2023-02-13T03:26:52.507Z,54.28
2023-02-13T03:29:37.504Z,48.45
2023-02-13T03:32:12.226Z,47.58
2023-02-13T03:35:00.471Z,47.42
2023-02-13T03:37:47.280Z,52.28
2023-02-13T03:40:17.685Z,49.03
2023-02-13T03:42:47.220Z,52.45
2023-02-13T03:45:38.061Z,50.72
2023-02-13T03:48:09.826Z,51.58
2023-02-13T03:50:42.427Z,51.42
2023-02-13T03:53:10.274Z,57.20
2023-02-13T03:55:57.226Z,53.00
2023-02-13T03:58:42.946Z,54.28
2023-02-13T04:01:11.660Z,47.83
2023-02-13T04:03:42.544Z,51.72
2023-02-13T04:06:10.839Z,50.97
2023-02-13T04:08:37.217Z,55.80
2023-02-13T04:11:23.706Z,53.95
2023-02-13T04:13:52.970Z,53.53
2023-02-13T04:16:27.801Z,62.60
2023-02-13T04:18:55.002Z,59.05
2023-02-13T04:21:21.289Z,56.35
2023-02-13T04:23:47.514Z,57.13
2023-02-13T04:26:17.982Z,54.22
2023-02-13T04:28:44.222Z,53.92
2023-02-13T04:31:10.619Z,72.72
2023-02-13T04:33:37.012Z,58.33
2023-02-13T04:36:03.353Z,64.40
2023-02-13T04:38:29.612Z,64.78
2023-02-13T04:40:56.211Z,59.63
2023-02-13T04:43:22.836Z,56.35
2023-02-13T04:45:49.365Z,70.15
2023-02-13T04:48:15.670Z,69.03
2023-02-13T04:50:41.900Z,65.70
2023-02-13T04:53:08.190Z,60.00
2023-02-13T04:55:34.409Z,61.42
2023-02-13T04:58:00.681Z,56.50
2023-02-13T05:00:28.050Z,54.20
2023-02-13T05:02:54.759Z,49.42
2023-02-13T05:05:21.292Z,50.17
2023-02-13T05:07:47.632Z,54.28
2023-02-13T05:10:13.891Z,53.15
2023-02-13T05:12:40.143Z,59.38
2023-02-13T05:15:06.709Z,66.03
2023-02-13T05:17:32.946Z,58.25
2023-02-13T05:19:59.893Z,60.05
2023-02-13T05:25:11.303Z,58.67
2023-02-13T05:27:37.538Z,52.05
2023-02-13T05:30:03.892Z,50.95
2023-02-13T05:32:30.126Z,53.08
2023-02-13T05:34:56.376Z,51.58
2023-02-13T05:37:22.587Z,47.47
2023-02-13T05:39:48.900Z,56.22
2023-02-13T05:42:15.136Z,56.03
2023-02-13T05:44:41.600Z,56.47
2023-02-13T05:47:07.870Z,55.35
2023-02-13T05:49:34.127Z,47.67
2023-02-13T05:52:00.337Z,52.25
2023-02-13T05:54:26.558Z,53.25
2023-02-13T05:56:52.818Z,52.22
2023-02-13T05:59:19.149Z,54.65
2023-02-13T06:01:45.468Z,59.92
2023-02-13T06:04:11.757Z,56.67
2023-02-13T06:06:38.123Z,54.47
2023-02-13T06:09:04.494Z,52.50
2023-02-13T06:11:30.774Z,50.67
2023-02-13T06:13:57.015Z,50.35
2023-02-13T06:16:23.380Z,51.58
2023-02-13T06:18:49.652Z,56.35
2023-02-13T06:21:15.929Z,54.60
2023-02-13T06:23:42.783Z,51.92
2023-02-13T06:28:35.242Z,50.75
2023-02-13T06:31:02.028Z,53.65
2023-02-13T06:33:28.518Z,50.65
2023-02-13T06:35:54.794Z,57.17
2023-02-13T06:38:21.475Z,56.22
2023-02-13T06:40:48.249Z,54.42
2023-02-13T06:43:15.056Z,52.53
2023-02-13T06:45:41.568Z,54.28
2023-02-13T06:48:07.860Z,63.60
2023-02-13T06:50:34.654Z,67.22
2023-02-13T06:55:27.394Z,64.10
2023-02-13T06:57:53.698Z,92.65
2023-02-13T07:00:20.229Z,74.18
2023-02-13T07:02:47.021Z,67.28
2023-02-13T07:07:40.644Z,62.03
2023-02-13T07:10:08.068Z,92.57
2023-02-13T07:12:34.783Z,68.35
2023-02-13T07:17:27.386Z,51.35
2023-02-13T07:19:53.699Z,55.03
2023-02-13T07:22:20.069Z,51.95
2023-02-13T07:24:46.302Z,57.13
2023-02-13T07:27:12.575Z,73.38
2023-02-13T07:29:38.801Z,59.10
2023-02-13T07:32:07.039Z,53.78
2023-02-13T07:34:33.432Z,66.18
2023-02-13T07:36:59.664Z,60.60
2023-02-13T07:39:25.940Z,70.07
2023-02-13T07:41:52.255Z,57.00
2023-02-13T07:44:18.520Z,75.82
2023-02-13T07:46:44.777Z,76.15
2023-02-13T07:49:11.079Z,53.92
2023-02-13T07:51:37.380Z,73.30
2023-02-13T07:54:03.713Z,48.63
2023-02-13T07:56:29.951Z,48.15
2023-02-13T07:58:56.186Z,93.00
2023-02-13T08:01:22.675Z,55.22
2023-02-13T08:03:52.589Z,73.03
2023-02-13T08:06:19.843Z,95.00
2023-02-13T08:08:46.163Z,71.70
2023-02-13T08:11:42.808Z,90.13
2023-02-13T08:14:09.418Z,59.90
2023-02-13T08:16:35.989Z,83.05
2023-02-13T08:19:02.252Z,66.45
2023-02-13T08:21:28.473Z,54.03
2023-02-13T08:23:54.747Z,72.95
2023-02-13T08:26:20.983Z,55.20
2023-02-13T08:28:47.210Z,63.17
2023-02-13T08:31:13.545Z,49.08
2023-02-13T08:33:41.354Z,53.25
2023-02-13T08:36:07.849Z,53.03
2023-02-13T08:38:34.171Z,54.47
2023-02-13T08:41:00.451Z,55.50
2023-02-13T08:43:26.673Z,52.35
2023-02-13T08:45:52.988Z,52.38
2023-02-13T08:48:19.244Z,55.75
2023-02-13T08:50:45.476Z,54.35
2023-02-13T08:53:11.691Z,47.25
2023-02-13T08:55:37.930Z,48.40
2023-02-13T08:58:04.741Z,47.22
2023-02-13T09:00:31.133Z,45.35
2023-02-13T09:03:01.001Z,40.80
2023-02-13T09:05:27.372Z,41.30
2023-02-13T09:07:53.627Z,47.05
2023-02-13T09:10:20.131Z,40.05
2023-02-13T09:12:52.090Z,40.90
2023-02-13T09:15:18.375Z,41.92
2023-02-13T09:17:44.665Z,39.33
2023-02-13T09:20:13.865Z,38.05
2023-02-13T09:22:40.659Z,41.30
2023-02-13T09:25:07.349Z,38.25
2023-02-13T09:27:34.632Z,40.67
2023-02-13T09:30:01.368Z,40.10
2023-02-13T09:32:27.912Z,42.50
2023-02-13T09:34:54.230Z,35.90
2023-02-13T09:37:22.812Z,41.55
2023-02-13T09:39:49.023Z,43.47
2023-02-13T09:42:21.054Z,39.00
2023-02-13T09:44:48.857Z,37.90
2023-02-13T09:47:15.059Z,38.50
2023-02-13T09:49:43.761Z,32.65
2023-02-13T09:52:10.264Z,38.58
2023-02-13T09:54:36.532Z,33.00
2023-02-13T09:57:02.829Z,42.92
2023-02-13T09:59:47.886Z,39.35
2023-02-13T10:02:24.620Z,32.88
2023-02-13T10:05:01.065Z,37.80
2023-02-13T10:07:38.970Z,35.47
2023-02-13T10:10:05.182Z,32.85
2023-02-13T10:12:46.137Z,31.30
2023-02-13T10:15:17.368Z,34.45
2023-02-13T10:17:44.946Z,35.00
2023-02-13T10:20:23.357Z,31.70
2023-02-13T10:22:51.932Z,32.15
2023-02-13T10:25:25.747Z,32.05
2023-02-13T10:27:57.170Z,32.30
2023-02-13T10:30:25.891Z,37.53
2023-02-13T10:33:11.087Z,30.50
2023-02-13T10:35:38.429Z,37.97
2023-02-13T10:38:13.911Z,30.35
2023-02-13T10:40:42.072Z,31.48
2023-02-13T10:43:09.249Z,31.13
2023-02-13T10:45:44.706Z,33.75
2023-02-13T10:48:37.751Z,34.53
2023-02-13T10:51:14.810Z,29.40
2023-02-13T10:53:50.357Z,34.22
2023-02-13T10:56:30.460Z,23.90
2023-02-13T10:59:05.947Z,23.77
2023-02-13T11:01:32.218Z,24.77
2023-02-13T11:04:06.348Z,26.50
2023-02-13T11:06:34.649Z,22.05
2023-02-13T11:09:00.914Z,21.73
2023-02-13T11:11:31.716Z,20.65
2023-02-13T11:14:09.211Z,18.88
2023-02-13T11:19:01.709Z,16.15
2023-02-13T11:21:34.318Z,13.57
2023-02-13T11:24:00.926Z,18.10
2023-02-13T11:26:31.237Z,17.05
2023-02-13T11:29:00.934Z,14.20
2023-02-13T11:31:31.889Z,11.48
2023-02-13T11:33:59.902Z,16.55
2023-02-13T11:36:32.229Z,14.18
2023-02-13T11:39:03.590Z,21.55
2023-02-13T11:41:30.256Z,13.50
2023-02-13T11:46:31.138Z,9.80
2023-02-13T11:49:03.181Z,11.10
2023-02-13T11:51:46.410Z,12.85
2023-02-13T11:54:39.011Z,9.48
2023-02-13T11:57:18.427Z,11.48
2023-02-13T11:59:45.483Z,10.05
2023-02-13T12:02:11.721Z,8.82
2023-02-13T12:04:38.079Z,8.93
2023-02-13T12:07:12.130Z,11.85
2023-02-13T12:09:40.034Z,9.75
2023-02-13T12:12:07.693Z,11.98
2023-02-13T12:14:39.854Z,9.15
2023-02-13T12:17:25.544Z,15.82
2023-02-13T12:19:56.971Z,11.20
2023-02-13T12:24:55.437Z,8.40
2023-02-13T12:27:21.667Z,10.75
2023-02-13T12:30:09.426Z,12.25
2023-02-13T12:32:35.642Z,10.70
2023-02-13T12:37:33.802Z,9.52
2023-02-13T12:40:13.267Z,7.32
2023-02-13T12:42:45.263Z,8.40
2023-02-13T12:45:15.230Z,6.63
2023-02-13T12:47:47.574Z,7.32
2023-02-13T12:50:32.624Z,7.10
2023-02-13T12:53:19.271Z,10.90
2023-02-13T12:55:57.759Z,9.57
2023-02-13T12:58:42.792Z,6.82
2023-02-13T13:01:19.870Z,7.63
2023-02-13T13:04:21.815Z,10.68
2023-02-13T13:07:06.552Z,12.43
2023-02-13T13:09:32.782Z,11.32
2023-02-13T13:12:13.124Z,12.20
2023-02-13T13:14:46.485Z,10.13
2023-02-13T13:17:12.751Z,11.27
2023-02-13T13:19:41.990Z,9.38
2023-02-13T13:22:23.487Z,11.52
2023-02-13T13:24:56.312Z,8.57
2023-02-13T13:27:33.295Z,12.20
2023-02-13T13:30:04.989Z,10.85
2023-02-13T13:32:32.291Z,12.82
2023-02-13T13:34:58.695Z,9.40
2023-02-13T13:37:49.278Z,12.23
2023-02-13T13:40:28.978Z,12.50
2023-02-13T13:43:13.006Z,11.68
2023-02-13T13:45:54.430Z,11.35
2023-02-13T13:48:39.313Z,12.57
2023-02-13T13:51:06.676Z,9.32
2023-02-13T13:53:33.127Z,12.02
2023-02-13T13:56:02.297Z,9.25
2023-02-13T13:58:31.546Z,9.85
2023-02-13T14:01:16.713Z,8.98
2023-02-13T14:03:46.957Z,13.45
2023-02-13T14:06:14.507Z,9.32
2023-02-13T14:08:40.754Z,8.32
2023-02-13T14:11:24.474Z,7.97
2023-02-13T14:13:50.820Z,9.00
2023-02-13T14:16:36.102Z,8.27
2023-02-13T14:19:02.419Z,13.02
2023-02-13T14:21:28.697Z,9.50
2023-02-13T14:23:57.303Z,10.25
2023-02-13T14:26:37.848Z,11.38
2023-02-13T14:29:10.144Z,10.75
2023-02-13T14:31:39.231Z,10.75
2023-02-13T14:34:11.445Z,20.20
2023-02-13T14:36:43.030Z,36.38
2023-02-13T14:39:12.070Z,14.65
2023-02-13T14:41:42.408Z,24.88
2023-02-13T14:44:28.069Z,8.95
2023-02-13T14:46:55.324Z,14.63
2023-02-13T14:49:26.820Z,13.57
2023-02-13T14:51:55.439Z,16.23
2023-02-13T14:54:25.915Z,18.60
2023-02-13T14:56:53.396Z,15.90
2023-02-13T14:59:22.735Z,12.85
2023-02-13T15:01:51.181Z,16.40
2023-02-13T15:04:22.334Z,36.80
2023-02-13T15:06:49.606Z,36.50
2023-02-13T15:09:19.546Z,15.30
2023-02-13T15:11:45.792Z,18.92
2023-02-13T15:14:31.844Z,11.50
2023-02-13T15:17:07.020Z,16.95
2023-02-13T15:19:35.636Z,19.67
2023-02-13T15:22:03.102Z,15.00
2023-02-13T15:24:35.347Z,18.70
2023-02-13T15:27:06.468Z,14.13
2023-02-13T15:29:44.299Z,12.85
2023-02-13T15:32:19.587Z,13.43
2023-02-13T15:34:49.016Z,14.57
2023-02-13T15:37:25.242Z,12.77
2023-02-13T15:39:51.525Z,14.18
2023-02-13T15:42:17.861Z,12.45
2023-02-13T15:44:45.604Z,12.80
2023-02-13T15:47:17.494Z,14.85
2023-02-13T15:49:45.169Z,15.55
2023-02-13T15:52:29.850Z,17.55
2023-02-13T15:54:56.518Z,15.25
2023-02-13T15:57:23.467Z,12.18
2023-02-13T16:02:21.275Z,11.95
2023-02-13T16:04:49.337Z,10.15
2023-02-13T16:07:15.645Z,13.98
2023-02-13T16:09:42.056Z,12.35
2023-02-13T16:12:28.084Z,10.27
2023-02-13T16:14:59.882Z,20.85
2023-02-13T16:17:29.016Z,15.98
2023-02-13T16:20:01.451Z,9.80
2023-02-13T16:22:27.729Z,19.00
2023-02-13T16:24:55.740Z,14.15
2023-02-13T16:27:25.788Z,22.58
2023-02-13T16:30:15.483Z,17.05
2023-02-13T16:32:41.803Z,14.52
2023-02-13T16:35:23.184Z,15.80
2023-02-13T16:37:50.727Z,14.02
2023-02-13T16:40:31.949Z,15.00
2023-02-13T16:43:17.208Z,9.90
2023-02-13T16:45:43.486Z,14.32
2023-02-13T16:48:14.590Z,14.15
2023-02-13T16:50:41.301Z,12.80
2023-02-13T16:53:07.556Z,25.35
2023-02-13T16:55:33.757Z,12.07
2023-02-13T16:58:04.082Z,15.60
2023-02-13T17:00:30.499Z,11.75
2023-02-13T17:02:56.907Z,22.02
2023-02-13T17:05:24.416Z,12.25
2023-02-13T17:07:51.837Z,20.60
2023-02-13T17:10:18.035Z,21.10
2023-02-13T17:12:44.880Z,21.10
2023-02-13T17:15:12.380Z,51.75
2023-02-13T17:17:38.776Z,23.92
2023-02-13T17:20:05.413Z,31.77
2023-02-13T17:22:33.843Z,22.20
2023-02-13T17:25:00.775Z,18.83
2023-02-13T17:29:53.300Z,15.48
2023-02-13T17:32:22.192Z,24.35
2023-02-13T17:34:48.757Z,17.70
2023-02-13T17:37:17.062Z,19.98
2023-02-13T17:39:43.270Z,23.55
2023-02-13T17:42:15.728Z,27.15
2023-02-13T17:44:41.926Z,18.65
2023-02-13T17:47:08.150Z,20.13
2023-02-13T17:49:34.382Z,20.23
2023-02-13T17:52:00.717Z,17.15
2023-02-13T17:54:27.305Z,14.15
2023-02-13T17:56:53.610Z,22.23
2023-02-13T17:59:19.831Z,19.15
2023-02-13T18:01:46.104Z,20.15
2023-02-13T18:04:12.345Z,24.65
2023-02-13T18:06:38.593Z,58.90
2023-02-13T18:09:04.813Z,20.52
2023-02-13T18:11:31.118Z,19.50
2023-02-13T18:13:57.443Z,26.63
2023-02-13T18:16:25.230Z,24.77
2023-02-13T18:18:51.929Z,14.60
2023-02-13T18:21:21.404Z,16.65
2023-02-13T18:23:47.726Z,19.75
2023-02-13T18:26:13.953Z,17.23
2023-02-13T18:28:40.268Z,21.52
2023-02-13T18:31:08.641Z,15.98
2023-02-13T18:33:35.587Z,21.70
2023-02-13T18:38:28.705Z,20.48
2023-02-13T18:43:21.624Z,14.98
2023-02-13T18:45:47.894Z,22.98
2023-02-13T18:48:14.440Z,19.63
2023-02-13T18:50:41.364Z,28.27
